createdAt,value
2019-02-28T00:00:46.052Z,9.97
2019-02-28T00:05:48.850Z,10.10
2019-02-28T00:10:51.558Z,10.70
2019-02-28T00:15:54.256Z,10.83
2019-02-28T00:20:56.933Z,9.80
2019-02-28T00:25:59.623Z,11.53
2019-02-28T00:31:02.369Z,11.27
2019-02-28T00:36:05.068Z,12.63
2019-02-28T00:41:09.374Z,11.83
2019-02-28T00:46:12.363Z,13.33
2019-02-28T00:51:15.059Z,14.00
2019-02-28T00:56:18.358Z,14.90
2019-02-28T01:01:21.246Z,15.80
2019-02-28T01:06:23.977Z,16.70
2019-02-28T01:11:26.688Z,16.47
2019-02-28T01:16:29.404Z,18.53
2019-02-28T01:21:32.092Z,16.93
2019-02-28T01:26:34.787Z,18.87
2019-02-28T01:31:37.489Z,17.97
2019-02-28T01:36:40.184Z,19.10
2019-02-28T01:41:45.272Z,19.83
2019-02-28T01:46:48.482Z,19.93
2019-02-28T01:51:52.061Z,19.80
2019-02-28T01:56:54.744Z,20.20
2019-02-28T02:01:57.461Z,22.50
2019-02-28T02:07:00.480Z,21.77
2019-02-28T02:12:03.308Z,22.87
2019-02-28T02:17:06.027Z,22.23
2019-02-28T02:22:09.512Z,21.13
2019-02-28T02:27:13.034Z,22.50
2019-02-28T02:32:15.774Z,22.27
2019-02-28T02:37:18.654Z,24.47
2019-02-28T02:42:21.392Z,23.00
2019-02-28T02:47:24.119Z,23.70
2019-02-28T02:52:30.428Z,23.70
2019-02-28T02:57:31.519Z,25.60
2019-02-28T03:02:34.389Z,26.50
2019-02-28T03:07:37.238Z,23.40
2019-02-28T03:12:39.936Z,24.80
2019-02-28T03:17:46.526Z,25.97
2019-02-28T03:22:47.243Z,26.30
2019-02-28T03:27:55.044Z,27.10
2019-02-28T03:32:54.584Z,25.77
2019-02-28T03:37:57.280Z,24.57
2019-02-28T03:43:05.355Z,24.13
2019-02-28T03:48:04.574Z,25.90
2019-02-28T03:53:07.313Z,24.33
2019-02-28T03:58:10.195Z,25.93
2019-02-28T04:03:12.904Z,29.40
2019-02-28T04:08:15.679Z,27.43
2019-02-28T04:13:19.521Z,24.80
2019-02-28T04:18:23.159Z,26.10
2019-02-28T04:23:25.903Z,26.37
2019-02-28T04:28:28.617Z,24.93
2019-02-28T04:33:37.361Z,26.10
2019-02-28T04:38:36.071Z,26.13
2019-02-28T04:43:41.597Z,24.97
2019-02-28T04:48:45.661Z,24.50
2019-02-28T04:53:52.626Z,25.07
2019-02-28T04:58:53.361Z,24.93
2019-02-28T05:03:56.139Z,23.57
2019-02-28T05:08:58.887Z,24.87
2019-02-28T05:14:01.633Z,24.70
2019-02-28T05:19:04.424Z,24.27
2019-02-28T05:24:07.942Z,25.30
2019-02-28T05:29:12.040Z,25.47
2019-02-28T05:34:16.739Z,28.00
2019-02-28T05:39:19.583Z,29.63
2019-02-28T05:44:22.290Z,28.30
2019-02-28T05:49:25.060Z,27.00
2019-02-28T05:59:46.455Z,29.63
2019-02-28T06:04:50.490Z,27.20
2019-02-28T06:09:54.956Z,30.50
2019-02-28T06:15:03.317Z,28.67
2019-02-28T06:20:05.735Z,29.33
2019-02-28T06:25:10.334Z,31.27
2019-02-28T06:30:14.953Z,31.33
2019-02-28T06:35:20.466Z,31.47
2019-02-28T06:40:26.153Z,28.33
2019-02-28T06:45:31.103Z,31.77
2019-02-28T06:50:35.030Z,32.27
2019-02-28T06:55:47.152Z,33.20
2019-02-28T07:00:50.618Z,33.00
2019-02-28T07:05:54.390Z,33.20
2019-02-28T07:10:58.112Z,34.40
2019-02-28T07:16:04.307Z,32.23
2019-02-28T07:21:07.836Z,29.73
2019-02-28T07:26:11.451Z,33.33
2019-02-28T07:31:14.141Z,33.17
2019-02-28T07:36:16.847Z,34.40
2019-02-28T07:41:20.329Z,33.40
2019-02-28T07:46:24.709Z,34.00
2019-02-28T07:51:27.626Z,33.63
2019-02-28T07:56:31.409Z,35.20
2019-02-28T08:01:34.150Z,34.13
2019-02-28T08:06:39.234Z,34.70
2019-02-28T08:11:41.627Z,35.47
2019-02-28T08:16:44.343Z,35.33
2019-02-28T08:21:50.208Z,34.57
2019-02-28T08:26:53.505Z,36.63
2019-02-28T08:31:57.568Z,36.47
2019-02-28T08:37:00.443Z,36.37
2019-02-28T08:42:04.735Z,35.30
2019-02-28T08:47:07.984Z,37.50
2019-02-28T08:52:12.058Z,36.87
2019-02-28T08:57:15.651Z,37.17
2019-02-28T09:02:20.144Z,38.90
2019-02-28T09:07:23.962Z,38.50
2019-02-28T09:12:29.991Z,36.97
2019-02-28T09:17:33.483Z,38.83
2019-02-28T09:22:38.034Z,35.43
2019-02-28T09:27:41.976Z,37.00
2019-02-28T09:32:48.217Z,37.53
2019-02-28T09:37:51.206Z,36.30
2019-02-28T09:42:55.537Z,33.13
2019-02-28T09:48:02.018Z,34.20
2019-02-28T09:53:05.505Z,33.20
2019-02-28T09:58:09.479Z,30.53
2019-02-28T10:03:15.476Z,32.10
2019-02-28T10:08:21.813Z,32.30
2019-02-28T10:13:26.353Z,29.90
2019-02-28T10:18:30.480Z,30.77
2019-02-28T10:23:33.918Z,28.43
2019-02-28T10:28:38.503Z,28.47
2019-02-28T10:33:42.313Z,30.83
2019-02-28T10:38:46.489Z,30.40
2019-02-28T10:43:54.785Z,31.40
2019-02-28T10:48:56.750Z,30.30
2019-02-28T10:54:00.715Z,29.37
2019-02-28T10:59:05.328Z,29.83
2019-02-28T11:04:09.563Z,27.73
2019-02-28T11:09:21.692Z,28.70
2019-02-28T11:14:26.346Z,29.37
2019-02-28T11:19:30.816Z,29.57
2019-02-28T11:24:35.136Z,29.53
2019-02-28T11:29:38.896Z,30.00
2019-02-28T11:34:42.838Z,30.23
2019-02-28T11:39:47.100Z,30.30
2019-02-28T11:44:50.819Z,30.23
2019-02-28T11:50:00.366Z,28.00
2019-02-28T11:55:02.361Z,29.40
2019-02-28T12:00:14.185Z,31.00
2019-02-28T12:05:20.435Z,30.27
2019-02-28T12:10:27.070Z,30.00
2019-02-28T12:15:31.770Z,30.53
2019-02-28T12:20:35.886Z,31.60
2019-02-28T12:25:42.487Z,32.13
2019-02-28T12:30:45.156Z,28.10
2019-02-28T12:35:48.778Z,27.83
2019-02-28T12:40:52.989Z,28.30
2019-02-28T12:45:59.947Z,27.80
2019-02-28T12:51:05.368Z,27.90
2019-02-28T12:56:11.247Z,26.73
2019-02-28T13:01:14.194Z,26.90
2019-02-28T13:06:23.413Z,28.87
2019-02-28T13:11:23.434Z,28.40
2019-02-28T13:16:27.430Z,29.90
2019-02-28T13:21:31.339Z,29.20
2019-02-28T13:26:34.797Z,29.27
2019-02-28T13:31:38.510Z,29.40
2019-02-28T13:36:42.778Z,28.33
2019-02-28T13:41:46.967Z,29.07
2019-02-28T13:46:50.878Z,27.60
2019-02-28T13:51:54.750Z,30.20
2019-02-28T13:56:57.747Z,27.43
2019-02-28T14:02:00.728Z,29.07
2019-02-28T14:07:03.778Z,27.73
2019-02-28T14:12:06.703Z,27.20
2019-02-28T14:17:09.525Z,28.80
2019-02-28T14:22:12.368Z,28.80
2019-02-28T14:27:15.218Z,28.27
2019-02-28T14:32:17.951Z,29.90
2019-02-28T14:37:20.695Z,29.50
2019-02-28T14:42:23.452Z,29.60
2019-02-28T14:47:28.500Z,29.07
2019-02-28T14:52:30.832Z,27.53
2019-02-28T14:57:33.733Z,30.60
2019-02-28T15:02:36.586Z,29.97
2019-02-28T15:07:39.735Z,31.80
2019-02-28T15:12:44.212Z,27.63
2019-02-28T15:17:47.073Z,29.97
2019-02-28T15:22:52.507Z,31.37
2019-02-28T15:27:54.680Z,30.47
2019-02-28T15:32:57.445Z,31.23
2019-02-28T15:38:00.162Z,31.57
2019-02-28T15:43:02.987Z,31.30
2019-02-28T15:48:05.724Z,30.57
2019-02-28T15:53:11.193Z,31.60
2019-02-28T15:58:13.135Z,32.00
2019-02-28T16:03:16.790Z,30.87
2019-02-28T16:08:20.212Z,31.17
2019-02-28T16:13:25.877Z,31.43
2019-02-28T16:18:27.562Z,34.07
2019-02-28T16:23:31.083Z,35.33
2019-02-28T16:28:34.078Z,35.37
2019-02-28T16:33:37.361Z,32.10
2019-02-28T16:38:42.411Z,32.40
2019-02-28T16:43:45.081Z,30.73
2019-02-28T16:48:47.806Z,32.47
2019-02-28T16:53:50.511Z,31.83
2019-02-28T16:58:53.789Z,31.67
2019-02-28T17:03:58.068Z,30.80
2019-02-28T17:09:32.458Z,32.80
2019-02-28T17:14:35.309Z,32.47
2019-02-28T17:19:38.105Z,31.50
2019-02-28T17:24:45.737Z,30.87
2019-02-28T17:29:53.619Z,32.90
2019-02-28T17:34:58.982Z,33.47
2019-02-28T17:40:01.054Z,34.47
2019-02-28T17:45:23.421Z,33.10
2019-02-28T17:51:03.051Z,31.70
2019-02-28T17:56:44.636Z,30.87
2019-02-28T18:02:39.548Z,34.20
2019-02-28T18:08:37.493Z,33.33
2019-02-28T18:14:13.244Z,33.37
2019-02-28T18:25:17.331Z,32.73
2019-02-28T18:31:19.249Z,33.10
2019-02-28T18:36:25.180Z,31.43
2019-02-28T18:41:27.914Z,33.80
2019-02-28T18:46:30.857Z,31.67
2019-02-28T18:51:33.761Z,29.83
2019-02-28T18:56:44.881Z,33.40
2019-02-28T19:01:47.723Z,32.80
2019-02-28T19:06:50.477Z,31.97
2019-02-28T19:11:57.537Z,33.20
2019-02-28T19:17:00.349Z,36.50
2019-02-28T19:22:03.324Z,40.30
2019-02-28T19:27:06.275Z,43.07
2019-02-28T19:32:09.140Z,45.17
2019-02-28T19:37:11.881Z,46.40
2019-02-28T19:42:14.636Z,40.83
2019-02-28T19:47:17.391Z,41.40
2019-02-28T19:52:20.159Z,36.90
2019-02-28T19:57:22.937Z,31.03
2019-02-28T20:02:25.918Z,31.30
2019-02-28T20:07:29.026Z,31.70
2019-02-28T20:12:31.813Z,29.57
2019-02-28T20:17:34.697Z,28.63
2019-02-28T20:22:37.440Z,28.13
2019-02-28T20:27:40.213Z,28.27
2019-02-28T20:32:43.015Z,30.80
2019-02-28T20:37:45.719Z,27.27
2019-02-28T20:42:48.445Z,30.37
2019-02-28T20:47:51.210Z,27.33
2019-02-28T20:52:54.322Z,27.93
2019-02-28T20:57:57.048Z,28.67
2019-02-28T21:02:59.815Z,28.47
2019-02-28T21:08:02.555Z,29.13
2019-02-28T21:13:05.281Z,28.87
2019-02-28T21:18:08.053Z,29.23
2019-02-28T21:23:10.852Z,31.03
2019-02-28T21:28:13.581Z,29.97
2019-02-28T21:33:16.330Z,29.83
2019-02-28T21:38:19.074Z,31.43
2019-02-28T21:43:21.779Z,31.00
2019-02-28T21:48:24.569Z,31.87
2019-02-28T21:53:27.379Z,32.33
2019-02-28T21:58:31.310Z,28.13
2019-02-28T22:03:34.157Z,30.30
2019-02-28T22:08:36.890Z,30.07
2019-02-28T22:13:39.666Z,28.97
2019-02-28T22:18:42.405Z,30.10
2019-02-28T22:23:45.136Z,26.23
2019-02-28T22:28:47.859Z,28.07
2019-02-28T22:34:22.345Z,26.13
2019-02-28T22:39:25.037Z,31.13
2019-02-28T22:44:27.761Z,28.93
2019-02-28T22:49:30.465Z,31.47
2019-02-28T22:54:33.207Z,30.30
2019-02-28T22:59:35.924Z,29.70
2019-02-28T23:04:38.928Z,28.27
2019-02-28T23:09:41.670Z,29.43
2019-02-28T23:14:44.405Z,29.20
2019-02-28T23:19:47.128Z,27.90
2019-02-28T23:24:49.858Z,25.57
2019-02-28T23:31:24.385Z,24.60
2019-02-28T23:36:27.262Z,23.57
2019-02-28T23:41:30.091Z,23.20
2019-02-28T23:46:32.803Z,22.10
2019-02-28T23:51:35.516Z,23.20
2019-02-28T23:56:38.225Z,23.00
